Time;durP1;ratioP1;P1;durP2;ratioP2;P2;SDS_P1;SDS_P2;PMS_P1;PMS_P2;Temp;Humidity;BMP_temperature;BMP_pressure;BME280_temperature;BME280_humidity;BME280_pressure;Samples;Min_cycle;Max_cycle;Signal;HPM_P1;HPM_P2
2022/09/13 00:03:18;;;;;;;39.50;23.10;;;;;;;16.04;100.00;100861.72;12786395;22;20101;-88
2022/09/13 00:08:19;;;;;;;34.40;23.95;;;;;;;15.61;100.00;100823.47;12786279;22;20008;-84
2022/09/13 00:13:20;;;;;;;36.30;24.67;;;;;;;15.38;100.00;100752.91;12783060;22;19992;-85
2022/09/13 00:18:20;;;;;;;30.63;22.80;;;;;;;15.67;100.00;100799.28;12783873;22;20028;-85
2022/09/13 00:23:21;;;;;;;31.80;22.90;;;;;;;15.23;100.00;100762.16;12807127;22;20024;-88
2022/09/13 00:28:21;;;;;;;38.95;25.65;;;;;;;15.34;100.00;100735.19;12782463;22;20011;-88
2022/09/13 00:33:22;;;;;;;36.03;24.95;;;;;;;15.50;100.00;100792.22;12783531;22;20564;-86
2022/09/13 00:38:23;;;;;;;37.50;24.05;;;;;;;15.78;100.00;100803.66;12783516;22;20005;-89
2022/09/13 00:43:48;;;;;;;39.35;24.08;;;;;;;15.36;100.00;100707.97;12785213;22;20013;-89
2022/09/13 00:48:49;;;;;;;32.67;23.20;;;;;;;16.09;100.00;100822.81;12794051;22;20012;-88
2022/09/13 00:53:50;;;;;;;37.33;23.23;;;;;;;15.68;100.00;100789.81;12786733;22;20076;-84
2022/09/13 00:59:01;;;;;;;38.97;24.38;;;;;;;15.74;100.00;100792.28;12784907;22;20000;-84
2022/09/13 01:04:01;;;;;;;32.17;22.08;;;;;;;15.32;100.00;100726.31;12792990;22;20020;-87
2022/09/13 01:09:03;;;;;;;37.47;25.13;;;;;;;14.94;100.00;100648.41;12787488;22;20418;-89
2022/09/13 01:14:04;;;;;;;40.22;25.77;;;;;;;15.22;100.00;100735.53;12940947;22;20066;-88
2022/09/13 01:19:04;;;;;;;39.15;25.85;;;;;;;15.82;100.00;100813.06;12786641;22;20331;-85
2022/09/13 01:24:42;;;;;;;39.90;24.42;;;;;;;15.69;100.00;100764.56;12814493;22;20096;-90
2022/09/13 01:30:09;;;;;;;37.22;22.60;;;;;;;15.61;100.00;100739.41;12840992;22;20012;-89
2022/09/13 01:35:15;;;;;;;36.95;22.17;;;;;;;16.48;100.00;100852.41;12801205;22;20022;-89
2022/09/13 01:40:16;;;;;;;39.15;23.67;;;;;;;16.48;100.00;100839.34;12803113;22;20448;-86
2022/09/13 01:45:19;;;;;;;38.78;24.98;;;;;;;16.49;100.00;100843.75;12943528;22;20028;-85
2022/09/13 01:50:49;;;;;;;40.88;24.40;;;;;;;16.48;100.00;100841.28;12841335;22;20312;-86
2022/09/13 01:56:08;;;;;;;38.45;23.08;;;;;;;16.48;100.00;100833.78;12892523;22;20021;-90
2022/09/13 02:01:17;;;;;;;37.17;22.85;;;;;;;15.84;100.00;100726.72;12946402;22;20015;-85
2022/09/13 02:06:19;;;;;;;41.17;23.27;;;;;;;15.34;100.00;100665.84;12788152;22;20023;-85
2022/09/13 02:11:21;;;;;;;34.05;22.10;;;;;;;14.95;100.00;100630.69;12829542;22;20330;-85
2022/09/13 02:16:28;;;;;;;31.42;20.88;;;;;;;16.08;100.00;100785.03;12788336;22;20300;-90
2022/09/13 02:21:28;;;;;;;;;;;;;;;16.53;100.00;100821.78;12863501;22;20022;-89
2022/09/13 02:26:29;;;;;;;32.63;20.30;;;;;;;15.89;100.00;100762.72;13136811;22;19915;-85
2022/09/13 02:31:33;;;;;;;28.00;19.17;;;;;;;15.19;100.00;100632.69;13083331;22;20008;-90
2022/09/13 02:36:35;;;;;;;26.92;18.10;;;;;;;15.23;100.00;100655.94;13085307;22;20013;-90
2022/09/13 02:41:47;;;;;;;25.90;18.00;;;;;;;14.97;100.00;100586.88;13081676;22;20003;-86
2022/09/13 02:47:17;;;;;;;24.38;17.83;;;;;;;15.43;100.00;100694.59;13080178;22;20067;-85
2022/09/13 02:52:26;;;;;;;22.95;16.42;;;;;;;15.50;100.00;100685.91;13109349;22;20006;-90
2022/09/13 02:57:39;;;;;;;24.30;16.73;;;;;;;16.46;100.00;100821.31;13110589;22;19998;-85
2022/09/13 03:02:40;;;;;;;30.08;18.80;;;;;;;15.79;100.00;100724.78;13131176;22;20010;-85
2022/09/13 03:07:40;;;;;;;37.08;20.40;;;;;;;15.69;100.00;100716.56;13082554;22;20081;-84
2022/09/13 03:12:53;;;;;;;35.58;20.25;;;;;;;16.44;100.00;100827.16;13082634;22;20077;-90
2022/09/13 03:18:15;;;;;;;37.70;22.30;;;;;;;16.50;100.00;100836.28;13134669;22;20063;-84
2022/09/13 03:23:40;;;;;;;37.13;22.52;;;;;;;16.48;100.00;100831.00;13161697;22;20018;-89
2022/09/13 03:29:00;;;;;;;38.20;22.88;;;;;;;16.52;100.00;100842.38;13109035;22;20006;-90
2022/09/13 03:34:13;;;;;;;43.80;24.73;;;;;;;15.60;100.00;100737.72;13134990;22;20011;-86
2022/09/13 03:39:38;;;;;;;39.40;25.42;;;;;;;15.91;100.00;100766.03;13070833;22;20313;-89
2022/09/13 03:44:38;;;;;;;41.08;24.25;;;;;;;15.30;100.00;100662.81;13108260;22;20021;-84
2022/09/13 03:49:39;;;;;;;39.50;24.38;;;;;;;15.38;100.00;100691.03;13103732;22;20017;-85
2022/09/13 03:54:40;;;;;;;54.13;28.02;;;;;;;16.55;100.00;100891.78;13078872;22;20030;-86
2022/09/13 03:59:46;;;;;;;43.95;24.88;;;;;;;15.22;100.00;100685.63;13132379;22;20028;-86
2022/09/13 04:04:47;;;;;;;34.13;19.23;;;;;;;14.54;100.00;100589.38;13107570;22;20025;-90
2022/09/13 04:09:48;;;;;;;32.85;16.38;;;;;;;15.60;100.00;100763.53;13081493;22;20045;-90
2022/09/13 04:14:49;;;;;;;17.05;9.98;;;;;;;14.94;100.00;100642.88;13083972;22;20085;-90
2022/09/13 04:19:50;;;;;;;13.60;7.20;;;;;;;15.57;100.00;100771.63;13080090;22;20057;-86
2022/09/13 04:24:51;;;;;;;10.30;5.97;;;;;;;15.00;100.00;100680.53;13047176;22;20010;-91
2022/09/13 04:29:52;;;;;;;16.48;5.43;;;;;;;15.53;100.00;100783.28;13046461;22;20080;-85
2022/09/13 04:34:53;;;;;;;7.07;5.05;;;;;;;14.93;100.00;100646.78;13030620;22;20082;-86
2022/09/13 04:39:53;;;;;;;6.38;4.38;;;;;;;15.25;100.00;100720.25;13071299;22;20305;-86
2022/09/13 04:44:54;;;;;;;9.50;5.85;;;;;;;15.80;100.00;100814.47;13019823;22;20011;-86
2022/09/13 04:49:55;;;;;;;9.93;5.95;;;;;;;15.08;100.00;100724.25;13069578;22;20011;-85
2022/09/13 04:54:59;;;;;;;10.35;7.93;;;;;;;15.76;100.00;100819.75;13017768;22;20329;-86
2022/09/13 04:59:59;;;;;;;14.02;8.38;;;;;;;15.10;100.00;100713.72;13049694;22;20061;-91
2022/09/13 05:05:00;;;;;;;11.38;8.13;;;;;;;15.46;100.00;100771.69;13020602;22;20085;-85
2022/09/13 05:10:00;;;;;;;13.95;9.70;;;;;;;15.45;100.00;100750.63;13019623;22;20033;-84
2022/09/13 05:15:01;;;;;;;11.88;8.52;;;;;;;15.18;100.00;100719.78;13021854;22;19998;-91
2022/09/13 05:20:03;;;;;;;13.52;9.52;;;;;;;14.92;100.00;100672.81;13025986;22;20003;-91
2022/09/13 05:25:05;;;;;;;14.48;8.93;;;;;;;15.56;100.00;100775.50;13032267;22;20092;-86
2022/09/13 05:30:06;;;;;;;16.33;9.23;;;;;;;14.38;100.00;100596.13;13044803;22;20003;-86
2022/09/13 05:35:09;;;;;;;13.80;8.27;;;;;;;14.88;100.00;100666.19;13020531;22;20023;-90
2022/09/13 05:40:09;;;;;;;15.52;8.38;;;;;;;15.49;100.00;100793.31;13022556;22;20053;-90
2022/09/13 05:45:10;;;;;;;11.85;8.10;;;;;;;15.04;100.00;100714.88;13024040;22;20034;-90
2022/09/13 05:50:11;;;;;;;15.93;9.43;;;;;;;15.48;100.00;100769.47;13021469;22;20069;-86
2022/09/13 05:55:11;;;;;;;16.75;8.88;;;;;;;15.51;100.00;100810.50;13043638;22;20018;-86
2022/09/13 06:00:12;;;;;;;17.08;10.02;;;;;;;15.10;100.00;100708.16;13046368;22;20003;-91
2022/09/13 06:05:13;;;;;;;14.93;8.35;;;;;;;15.20;100.00;100723.91;12995573;22;20102;-90
2022/09/13 06:10:14;;;;;;;14.25;8.38;;;;;;;15.11;100.00;100726.47;13009443;22;20031;-91
2022/09/13 06:15:14;;;;;;;9.73;6.70;;;;;;;15.80;100.00;100831.94;13016776;22;20072;-85
2022/09/13 06:20:15;;;;;;;10.07;5.20;;;;;;;15.45;100.00;100791.41;13016454;22;20006;-85
2022/09/13 06:25:15;;;;;;;11.20;3.03;;;;;;;15.80;100.00;100843.06;12730843;23;20023;-85
2022/09/13 06:30:16;;;;;;;10.85;3.17;;;;;;;15.45;100.00;100758.94;12744393;23;20006;-86
2022/09/13 06:35:16;;;;;;;6.90;3.30;;;;;;;15.79;100.00;100841.38;12718883;23;20009;-87
2022/09/13 06:40:17;;;;;;;17.00;4.38;;;;;;;14.59;100.00;100592.13;12743481;23;20482;-86
2022/09/13 06:45:17;;;;;;;5.55;2.35;;;;;;;16.09;100.00;100822.81;12874240;22;20025;-92
2022/09/13 06:50:18;;;;;;;9.13;2.38;;;;;;;15.47;100.00;100715.09;12745864;23;20040;-91
2022/09/13 06:55:18;;;;;;;14.85;2.85;;;;;;;16.15;100.00;100813.31;12746597;23;20024;-85
2022/09/13 07:00:19;;;;;;;11.80;3.25;;;;;;;15.82;100.00;100743.66;12720126;23;20040;-86
2022/09/13 07:05:20;;;;;;;9.18;2.55;;;;;;;16.37;100.00;100803.63;12744536;23;20032;-85
2022/09/13 07:10:20;;;;;;;9.38;1.83;;;;;;;16.50;100.00;100812.09;12744403;22;20006;-86
2022/09/13 07:15:21;;;;;;;8.27;1.58;;;;;;;17.34;100.00;100935.94;12743585;23;20013;-86
2022/09/13 07:20:22;;;;;;;11.77;2.45;;;;;;;16.08;100.00;100715.59;12768164;23;20012;-86
2022/09/13 07:25:22;;;;;;;9.70;1.30;;;;;;;17.45;100.00;100908.81;12743654;22;20021;-86
2022/09/13 07:30:25;;;;;;;12.73;1.60;;;;;;;16.15;100.00;100710.53;12767045;23;20126;-90
2022/09/13 07:35:26;;;;;;;6.97;1.38;;;;;;;16.66;100.00;100804.41;12741937;22;20009;-88
2022/09/13 07:40:26;;;;;;;5.18;1.17;;;;;;;16.73;100.00;100820.72;12717493;23;20002;-88
2022/09/13 07:45:27;;;;;;;6.10;2.65;;;;;;;16.54;100.00;100804.00;12701736;23;20025;-88
2022/09/13 07:50:30;;;;;;;12.05;1.75;;;;;;;17.21;100.00;100875.47;12712131;23;20373;-88
2022/09/13 07:55:30;;;;;;;8.38;1.00;;;;;;;16.83;100.00;100764.19;12741815;22;20323;-86
2022/09/13 08:00:31;;;;;;;5.75;1.00;;;;;;;17.37;100.00;100840.72;12766253;23;20013;-86
2022/09/13 08:05:31;;;;;;;5.55;1.00;;;;;;;16.48;100.00;100719.03;12719946;22;20053;-88
2022/09/13 08:10:35;;;;;;;6.43;1.13;;;;;;;17.41;100.00;100877.13;12718824;23;20002;-88
2022/09/13 08:15:35;;;;;;;3.20;1.25;;;;;;;16.01;100.00;100660.44;12744987;23;20005;-90
2022/09/13 08:20:39;;;;;;;4.63;1.10;;;;;;;15.91;100.00;100633.59;12733158;22;20005;-87
2022/09/13 08:25:40;;;;;;;4.18;0.73;;;;;;;17.19;100.00;100830.41;13081219;22;20093;-86
2022/09/13 08:30:42;;;;;;;7.65;0.80;;;;;;;16.12;100.00;100688.91;13106780;22;20081;-87
2022/09/13 08:35:49;;;;;;;6.82;0.93;;;;;;;16.54;100.00;100734.50;13082484;22;20320;-86
2022/09/13 08:40:58;;;;;;;7.72;1.35;;;;;;;16.34;100.00;100657.78;13107808;22;20052;-88
2022/09/13 08:46:02;;;;;;;6.93;1.00;;;;;;;17.64;100.00;100858.69;13081219;22;20006;-90
2022/09/13 08:51:08;;;;;;;4.25;1.00;;;;;;;17.75;100.00;100818.41;13066136;22;20022;-89
2022/09/13 08:56:10;;;;;;;4.05;1.33;;;;;;;17.79;100.00;100760.97;13081470;22;20003;-88
2022/09/13 09:01:33;;;;;;;4.43;0.70;;;;;;;18.89;100.00;100913.66;13067724;22;20052;-89
2022/09/13 09:06:34;;;;;;;7.63;0.80;;;;;;;18.04;100.00;100829.34;13106022;22;20022;-89
2022/09/13 09:11:40;;;;;;;6.55;0.70;;;;;;;18.35;100.00;100959.78;13106622;22;20099;-90
2022/09/13 09:16:44;;;;;;;8.30;1.20;;;;;;;17.83;100.00;100808.56;13081648;22;20006;-87
2022/09/13 09:21:46;;;;;;;7.28;1.08;;;;;;;18.08;100.00;100777.47;13081127;22;20019;-88
2022/09/13 09:26:46;;;;;;;5.30;0.60;;;;;;;19.35;100.00;100836.50;13081663;22;20046;-86
2022/09/13 09:32:03;;;;;;;6.20;0.70;;;;;;;19.48;100.00;100829.22;13107214;22;20014;-86
2022/09/13 09:37:16;;;;;;;3.95;0.50;;;;;;;18.54;100.00;100711.59;13106827;22;19998;-88
2022/09/13 09:42:24;;;;;;;2.97;0.60;;;;;;;20.17;100.00;100859.66;13084587;22;20010;-90
2022/09/13 09:47:26;;;;;;;5.47;0.68;;;;;;;18.86;100.00;100673.56;13083413;22;20017;-89
2022/09/13 09:53:15;;;;;;;3.97;0.57;;;;;;;20.42;100.00;100921.63;13082159;22;20069;-89
2022/09/13 09:58:17;;;;;;;4.40;0.55;;;;;;;19.56;100.00;100775.41;13098030;22;20009;-90
2022/09/13 10:03:31;;;;;;;6.60;0.60;;;;;;;18.86;100.00;100677.19;13080981;22;20002;-89
2022/09/13 10:08:36;;;;;;;1.90;0.40;;;;;;;18.88;100.00;100584.84;13081410;22;20013;-91
2022/09/13 10:13:37;;;;;;;8.85;1.25;;;;;;;20.41;100.00;100816.53;13080974;22;20420;-87
2022/09/13 10:18:38;;;;;;;2.58;0.50;;;;;;;20.91;96.19;100802.25;13081751;22;19999;-87
2022/09/13 10:23:39;;;;;;;5.75;0.88;;;;;;;20.70;95.91;100822.44;13081675;22;20023;-85
2022/09/13 10:28:51;;;;;;;3.78;0.50;;;;;;;20.93;95.06;100878.28;13082829;22;20014;-82
2022/09/13 10:34:01;;;;;;;5.60;0.73;;;;;;;19.93;93.53;100687.59;13110351;22;20015;-87
2022/09/13 10:39:21;;;;;;;4.28;1.05;;;;;;;21.47;92.42;100834.09;12957092;22;20003;-91
2022/09/13 10:44:40;;;;;;;7.32;1.02;;;;;;;22.07;89.86;100882.03;12908584;22;20040;-91
2022/09/13 10:49:50;;;;;;;5.53;0.85;;;;;;;20.95;87.34;100727.69;13091518;22;20080;-87
2022/09/13 10:54:51;;;;;;;4.50;0.43;;;;;;;21.68;87.26;100797.03;13089033;22;19999;-87
2022/09/13 10:59:53;;;;;;;4.82;0.85;;;;;;;20.20;89.91;100651.38;13103612;22;20034;-85
2022/09/13 11:05:13;;;;;;;3.33;0.70;;;;;;;21.43;90.64;100907.91;13080238;22;20455;-88
2022/09/13 11:10:32;;;;;;;7.55;0.93;;;;;;;19.67;93.74;100665.09;13132375;22;20428;-87
2022/09/13 11:15:46;;;;;;;5.30;0.73;;;;;;;21.12;88.10;100836.84;13106752;22;20020;-89
2022/09/13 11:20:52;;;;;;;3.70;0.90;;;;;;;21.26;88.50;100807.88;13065075;22;20025;-92
2022/09/13 11:25:55;;;;;;;2.97;0.55;;;;;;;22.23;85.34;100886.00;13132373;22;20048;-88
2022/09/13 11:31:02;;;;;;;3.83;1.02;;;;;;;22.13;84.45;100779.78;13127807;22;20002;-90
2022/09/13 11:36:12;;;;;;;5.40;0.88;;;;;;;21.51;82.24;100720.25;13129160;22;20280;-88
2022/09/13 11:41:27;;;;;;;4.50;0.68;;;;;;;21.88;84.79;100896.41;13078778;22;20072;-87
2022/09/13 11:46:30;;;;;;;4.72;0.75;;;;;;;21.86;85.27;100882.72;13116445;22;20325;-88
2022/09/13 11:51:50;;;;;;;5.03;1.10;;;;;;;22.19;79.09;100862.56;13128718;22;20006;-87
2022/09/13 11:57:12;;;;;;;5.28;0.60;;;;;;;20.93;77.23;100724.38;13129646;22;19999;-87
2022/09/13 12:02:32;;;;;;;5.22;0.50;;;;;;;22.89;75.64;100860.34;13103508;22;20007;-87
2022/09/13 12:07:37;;;;;;;6.20;0.77;;;;;;;22.71;71.81;100593.00;13102990;22;20049;-87
2022/09/13 12:12:38;;;;;;;6.72;0.80;;;;;;;23.63;68.57;100677.38;13088262;22;20003;-87
2022/09/13 12:17:51;;;;;;;3.08;0.57;;;;;;;25.08;65.87;100802.78;13020891;22;20468;-89
2022/09/13 12:22:51;;;;;;;4.45;0.77;;;;;;;24.28;65.86;100686.03;13076958;22;20026;-87
2022/09/13 12:28:09;;;;;;;6.57;0.77;;;;;;;24.54;67.89;100829.22;13102978;22;20097;-86
2022/09/13 12:33:12;;;;;;;;;;;;;;;24.96;65.01;100843.06;13103883;22;20038;-87
2022/09/13 12:38:40;;;;;;;3.45;0.73;;;;;;;25.69;64.68;100794.16;13130923;22;19910;-87
2022/09/13 12:44:05;;;;;;;5.40;0.85;;;;;;;25.46;64.16;100844.63;13112105;22;20003;-86
2022/09/13 12:49:31;;;;;;;6.80;1.02;;;;;;;25.42;62.69;100845.72;13141550;22;20006;-86
2022/09/13 12:54:44;;;;;;;4.15;0.80;;;;;;;24.61;63.66;100724.50;13107697;22;19994;-87
2022/09/13 13:00:07;;;;;;;4.15;0.85;;;;;;;25.31;63.51;100854.66;13108694;22;20392;-87
2022/09/13 13:05:32;;;;;;;6.85;1.20;;;;;;;25.09;62.02;100737.63;13107241;22;20093;-88
2022/09/13 13:10:34;;;;;;;3.22;0.70;;;;;;;24.83;62.24;100745.69;13106365;22;20068;-88
2022/09/13 13:15:35;;;;;;;5.82;1.15;;;;;;;24.01;66.94;100839.38;13081176;22;19998;-88
2022/09/13 13:20:46;;;;;;;13.95;3.92;;;;;;;22.79;70.98;100812.19;13132838;22;20423;-87
2022/09/13 13:26:12;;;;;;;5.28;1.35;;;;;;;22.89;72.12;100867.94;13105500;22;20029;-86
2022/09/13 13:31:30;;;;;;;5.10;0.95;;;;;;;22.75;70.53;100782.00;13132382;22;20006;-87
2022/09/13 13:36:42;;;;;;;4.80;0.80;;;;;;;22.38;73.03;100792.09;13133266;22;20090;-88
2022/09/13 13:41:52;;;;;;;5.15;0.80;;;;;;;21.72;71.42;100677.53;13081887;22;20010;-87
2022/09/13 13:46:54;;;;;;;3.13;0.90;;;;;;;23.24;71.18;100791.94;13083076;22;20081;-87
2022/09/13 13:52:14;;;;;;;3.72;0.85;;;;;;;23.84;69.24;100857.25;13107049;22;20002;-87
2022/09/13 13:57:33;;;;;;;7.53;0.85;;;;;;;23.95;70.12;100864.91;13131846;22;20006;-86
2022/09/13 14:02:53;;;;;;;3.30;1.02;;;;;;;23.25;66.38;100672.81;13131430;22;20454;-87
2022/09/13 14:07:59;;;;;;;5.63;1.00;;;;;;;25.56;63.56;100798.22;13109540;22;20466;-86
2022/09/13 14:13:45;;;;;;;5.40;1.00;;;;;;;26.20;60.54;100807.69;13135207;22;20003;-87
2022/09/13 14:19:05;;;;;;;8.52;1.10;;;;;;;26.65;61.54;100822.56;13082591;22;20007;-87
2022/09/13 14:24:22;;;;;;;7.43;0.93;;;;;;;25.84;59.71;100767.19;13131895;22;20067;-87
2022/09/13 14:29:24;;;;;;;7.50;1.15;;;;;;;24.62;62.68;100731.75;13108951;22;20002;-86
2022/09/13 14:34:32;;;;;;;6.50;1.30;;;;;;;24.31;62.73;100686.16;13081390;22;20031;-87
2022/09/13 14:39:33;;;;;;;6.43;1.08;;;;;;;24.65;62.60;100774.09;13082233;22;20554;-85
2022/09/13 14:44:33;;;;;;;5.40;0.73;;;;;;;24.88;62.48;100739.81;13079490;22;20072;-88
2022/09/13 14:49:37;;;;;;;4.78;1.08;;;;;;;24.16;61.26;100774.03;13080267;22;20026;-87
2022/09/13 14:54:50;;;;;;;10.35;0.93;;;;;;;23.24;63.02;100665.56;13080705;22;20088;-87
2022/09/13 14:59:52;;;;;;;6.80;1.25;;;;;;;23.72;62.70;100731.50;13133154;22;20006;-88
2022/09/13 15:04:54;;;;;;;4.95;0.60;;;;;;;23.87;61.46;100749.72;13079159;22;20020;-88
2022/09/13 15:09:57;;;;;;;6.20;1.08;;;;;;;23.86;61.16;100703.94;13079987;22;20005;-88
2022/09/13 15:15:18;;;;;;;5.65;0.73;;;;;;;24.07;61.97;100838.81;13081336;22;20081;-88
2022/09/13 15:20:18;;;;;;;6.40;0.75;;;;;;;22.64;63.99;100788.34;13104672;22;20010;-88
2022/09/13 15:25:26;;;;;;;6.07;0.93;;;;;;;22.84;62.62;100618.31;13078712;22;20022;-88
2022/09/13 15:30:29;;;;;;;9.88;1.58;;;;;;;23.22;62.32;100788.66;13105975;22;20002;-87
2022/09/13 15:35:33;;;;;;;3.88;0.68;;;;;;;22.31;64.06;100781.41;13082258;22;20006;-87
2022/09/13 15:40:41;;;;;;;8.38;1.00;;;;;;;20.68;66.58;100648.50;13080861;22;20010;-87
2022/09/13 15:45:41;;;;;;;2.35;0.60;;;;;;;21.04;66.25;100762.06;13089849;22;20021;-87
2022/09/13 15:50:42;;;;;;;1.25;0.50;;;;;;;19.77;67.64;100705.91;13078499;22;20007;-88
2022/09/13 15:55:42;;;;;;;4.68;0.73;;;;;;;20.05;68.42;100842.63;13077651;22;20111;-83
2022/09/13 16:00:43;;;;;;;5.45;0.50;;;;;;;19.38;70.58;100766.06;13106661;22;20014;-83
2022/09/13 16:05:43;;;;;;;6.72;0.77;;;;;;;19.49;71.01;100814.97;13078864;22;20425;-84
2022/09/13 16:10:44;;;;;;;4.25;0.63;;;;;;;18.90;71.82;100724.81;13081186;22;20006;-83
2022/09/13 16:15:44;;;;;;;8.32;0.50;;;;;;;19.70;72.80;100859.13;13079139;22;20021;-84
2022/09/13 16:20:45;;;;;;;5.28;1.00;;;;;;;18.48;75.07;100726.78;13078867;22;20065;-83
2022/09/13 16:25:46;;;;;;;4.72;0.90;;;;;;;18.93;75.98;100835.75;13111005;22;20392;-88
2022/09/13 16:30:47;;;;;;;3.72;0.77;;;;;;;18.49;76.68;100793.41;13083548;22;20010;-90
2022/09/13 16:35:47;;;;;;;3.33;0.50;;;;;;;18.43;78.29;100855.13;13084057;22;20379;-88
2022/09/13 16:40:48;;;;;;;4.93;0.57;;;;;;;18.04;78.57;100804.28;13083327;22;20316;-88
2022/09/13 16:45:50;;;;;;;4.45;0.45;;;;;;;18.62;79.25;100906.06;13083914;22;20014;-82
2022/09/13 16:50:51;;;;;;;4.88;1.08;;;;;;;17.75;81.10;100810.06;13109444;22;19999;-87
2022/09/13 16:55:51;;;;;;;4.20;0.50;;;;;;;18.11;80.75;100867.97;13088318;22;20172;-87
2022/09/13 17:00:52;;;;;;;2.35;0.43;;;;;;;17.01;82.13;100677.16;13048472;22;19999;-84
2022/09/13 17:06:01;;;;;;;4.53;0.60;;;;;;;16.18;83.88;100603.56;13133361;22;20018;-91
2022/09/13 17:11:06;;;;;;;4.50;0.82;;;;;;;16.74;87.88;100753.69;13065466;22;20305;-88
2022/09/13 17:16:18;;;;;;;2.72;0.57;;;;;;;16.53;89.60;100750.34;13055054;22;20380;-87
2022/09/13 17:21:18;;;;;;;3.95;0.73;;;;;;;16.32;93.19;100723.94;13069404;22;20010;-87
2022/09/13 17:26:22;;;;;;;2.83;0.93;;;;;;;16.75;96.58;100835.97;13108280;22;20018;-88
2022/09/13 17:31:22;;;;;;;3.97;0.77;;;;;;;16.35;100.00;100798.38;13081739;22;19998;-87
2022/09/13 17:36:23;;;;;;;3.42;0.60;;;;;;;15.52;100.00;100670.66;13067181;22;20021;-87
2022/09/13 17:41:24;;;;;;;5.60;0.90;;;;;;;16.16;100.00;100801.06;13089819;22;20030;-87
2022/09/13 17:46:27;;;;;;;6.13;0.70;;;;;;;15.97;100.00;100751.00;13084438;22;20377;-89
2022/09/13 17:51:29;;;;;;;2.22;0.70;;;;;;;16.36;100.00;100838.09;13080382;22;19998;-87
2022/09/13 17:56:34;;;;;;;9.30;1.42;;;;;;;15.62;100.00;100724.38;13080369;22;20324;-87
2022/09/13 18:01:36;;;;;;;2.10;0.70;;;;;;;15.74;100.00;100727.63;13106550;22;20063;-87
2022/09/13 18:06:39;;;;;;;4.32;0.75;;;;;;;16.27;100.00;100863.72;13106334;22;20168;-88
2022/09/13 18:11:40;;;;;;;3.00;0.60;;;;;;;15.04;100.00;100680.78;13081314;22;20006;-88
2022/09/13 18:16:40;;;;;;;4.72;0.80;;;;;;;14.79;100.00;100643.00;13078843;22;20077;-86
2022/09/13 18:21:41;;;;;;;2.92;0.60;;;;;;;15.22;100.00;100731.94;13077555;22;20508;-87
2022/09/13 18:26:41;;;;;;;4.53;0.77;;;;;;;15.80;100.00;100893.00;13106831;22;20164;-87
2022/09/13 18:31:45;;;;;;;5.22;0.75;;;;;;;15.02;100.00;100780.88;13081791;22;20048;-89
2022/09/13 18:36:45;;;;;;;6.93;1.05;;;;;;;14.22;100.00;100720.00;12963910;22;20160;-90
2022/09/13 18:41:47;;;;;;;3.72;0.70;;;;;;;13.85;100.00;100666.72;13009207;22;20059;-88
2022/09/13 18:46:49;;;;;;;2.67;0.60;;;;;;;14.50;100.00;100813.50;13050210;22;20030;-87
2022/09/13 18:51:50;;;;;;;1.80;0.50;;;;;;;14.33;100.00;100813.00;13042153;22;20006;-88
2022/09/13 18:56:51;;;;;;;4.25;0.70;;;;;;;13.44;100.00;100688.91;13044424;22;20420;-89
2022/09/13 19:01:55;;;;;;;4.68;0.75;;;;;;;12.85;100.00;100603.78;13047661;22;20006;-90
2022/09/13 19:07:01;;;;;;;5.03;1.33;;;;;;;14.28;100.00;100847.09;12988902;22;20018;-90
2022/09/13 19:12:03;;;;;;;3.90;0.70;;;;;;;14.03;100.00;100823.03;13085358;22;20006;-91
2022/09/13 19:17:04;;;;;;;3.70;0.80;;;;;;;12.94;100.00;100696.06;13057455;22;20010;-87
2022/09/13 19:22:14;;;;;;;2.97;0.63;;;;;;;12.87;100.00;100706.56;13068149;22;20014;-89
2022/09/13 19:27:15;;;;;;;4.97;0.60;;;;;;;13.77;100.00;100860.97;13111885;22;20018;-87
2022/09/13 19:32:15;;;;;;;4.97;0.85;;;;;;;13.59;100.00;100831.06;13067335;22;19998;-86
2022/09/13 19:37:16;;;;;;;2.40;0.70;;;;;;;13.51;100.00;100833.25;13039452;22;20006;-87
2022/09/13 19:42:17;;;;;;;7.03;1.45;;;;;;;13.55;100.00;100860.38;13083873;22;20435;-86
2022/09/13 19:47:17;;;;;;;2.33;1.00;;;;;;;12.40;100.00;100664.22;13036196;22;20018;-85
2022/09/13 19:52:21;;;;;;;4.82;2.20;;;;;;;12.68;100.00;100731.91;13060360;22;20002;-86
2022/09/13 19:57:21;;;;;;;7.28;1.83;;;;;;;13.72;100.00;100874.78;13057443;22;20002;-87
2022/09/13 20:02:23;;;;;;;9.38;1.70;;;;;;;12.98;100.00;100741.41;13018225;22;20009;-86
2022/09/13 20:07:24;;;;;;;9.15;2.28;;;;;;;12.60;100.00;100696.53;13119099;22;20010;-85
2022/09/13 20:12:25;;;;;;;5.57;1.63;;;;;;;13.41;100.00;100855.38;13054161;22;20022;-86
2022/09/13 20:17:31;;;;;;;7.72;1.88;;;;;;;12.72;100.00;100719.22;13101497;22;20008;-87
2022/09/13 20:22:32;;;;;;;5.43;1.30;;;;;;;12.50;100.00;100704.81;13029608;22;20479;-87
2022/09/13 20:27:33;;;;;;;4.85;1.73;;;;;;;12.55;100.00;100732.44;13047757;22;20030;-87
2022/09/13 20:32:33;;;;;;;7.80;1.95;;;;;;;11.86;100.00;100659.78;13068026;22;20435;-87
2022/09/13 20:37:34;;;;;;;3.60;1.60;;;;;;;12.28;100.00;100758.28;12983933;22;20019;-89
2022/09/13 20:42:36;;;;;;;5.75;2.22;;;;;;;12.26;100.00;100752.19;13025522;22;20356;-85
2022/09/13 20:47:36;;;;;;;5.75;2.08;;;;;;;12.01;100.00;100683.06;13074788;22;20333;-87
2022/09/13 20:52:40;;;;;;;5.18;1.83;;;;;;;12.13;100.00;100738.88;13069846;22;20010;-88
2022/09/13 20:57:43;;;;;;;4.97;2.23;;;;;;;11.47;100.00;100665.66;13022305;22;20038;-87
2022/09/13 21:02:45;;;;;;;7.28;1.70;;;;;;;12.30;100.00;100767.13;13020548;22;19999;-87
2022/09/13 21:13:08;;;;;;;6.90;1.40;;;;;;;11.26;100.00;100634.34;12988741;22;20005;-86
2022/09/13 21:18:13;;;;;;;5.90;1.00;;;;;;;11.51;100.00;100632.84;13068210;22;20010;-87
2022/09/13 21:23:14;;;;;;;6.40;1.35;;;;;;;11.61;100.00;100673.44;13032462;22;20022;-87
2022/09/13 21:28:16;;;;;;;4.60;1.10;;;;;;;11.01;100.00;100607.44;13007249;22;20022;-87
2022/09/13 21:33:18;;;;;;;5.93;1.70;;;;;;;10.88;100.00;100550.06;13080709;22;20328;-87
2022/09/13 21:38:19;;;;;;;5.60;2.17;;;;;;;12.11;100.00;100787.97;13052963;22;20004;-87
2022/09/13 21:43:22;;;;;;;5.40;1.60;;;;;;;12.10;100.00;100775.28;13003705;22;20364;-90
2022/09/13 21:48:23;;;;;;;3.60;1.60;;;;;;;11.70;100.00;100705.78;13000023;22;20006;-89
2022/09/13 21:53:24;;;;;;;4.03;1.17;;;;;;;11.61;100.00;100690.00;13027754;22;20026;-87
2022/09/13 21:58:25;;;;;;;6.50;1.40;;;;;;;11.06;100.00;100606.66;13001894;22;20007;-88
2022/09/13 22:03:26;;;;;;;6.05;1.20;;;;;;;12.67;100.00;100895.16;13085876;22;20085;-87
2022/09/13 22:08:30;;;;;;;5.35;1.10;;;;;;;11.58;100.00;100712.59;13066373;22;20022;-87
2022/09/13 22:13:34;;;;;;;8.98;1.33;;;;;;;11.21;100.00;100641.78;13083872;22;20010;-87
2022/09/13 22:18:35;;;;;;;4.93;1.45;;;;;;;12.36;100.00;100794.75;13088221;22;19995;-87
2022/09/13 22:23:36;;;;;;;5.55;1.17;;;;;;;11.71;100.00;100692.81;13081810;22;20018;-87
2022/09/13 22:28:36;;;;;;;8.00;1.85;;;;;;;12.10;100.00;100775.28;13024253;22;20025;-87
2022/09/13 22:33:37;;;;;;;6.22;1.38;;;;;;;10.81;100.00;100582.50;13057292;22;20006;-86
2022/09/13 22:38:38;;;;;;;4.93;2.35;;;;;;;12.75;100.00;100897.41;13043770;22;20026;-87
2022/09/13 22:43:40;;;;;;;9.02;2.08;;;;;;;12.32;100.00;100833.13;13029532;22;20006;-87
2022/09/13 22:48:41;;;;;;;9.32;1.58;;;;;;;10.97;100.00;100624.75;13078624;22;20097;-87
2022/09/13 22:53:45;;;;;;;5.85;1.80;;;;;;;12.30;100.00;100827.84;13032247;22;20014;-87
2022/09/13 22:58:46;;;;;;;4.28;1.30;;;;;;;11.63;100.00;100718.13;13083412;22;20030;-88
2022/09/13 23:03:47;;;;;;;5.03;1.45;;;;;;;11.84;100.00;100733.72;13034273;22;20068;-89
2022/09/13 23:08:50;;;;;;;5.57;1.52;;;;;;;10.92;100.00;100584.25;13057159;22;20032;-87
2022/09/13 23:13:53;;;;;;;4.72;1.40;;;;;;;11.00;100.00;100581.00;13092161;22;20491;-86